Time;durP1;ratioP1;P1;durP2;ratioP2;P2;SDS_P1;SDS_P2;PMS_P1;PMS_P2;Temp;Humidity;BMP_temperature;BMP_pressure;BME280_temperature;BME280_humidity;BME280_pressure;Samples;Min_cycle;Max_cycle;Signal;HPM_P1;HPM_P2
2022/06/18 00:00:56;;;;;;;7.80;7.20;;;21.70;97.30;;;;;;5128287;27;20437;-68
2022/06/18 00:03:23;;;;;;;8.60;7.90;;;21.60;97.80;;;;;;5111938;27;20907;-67
2022/06/18 00:05:52;;;;;;;9.07;8.37;;;21.60;97.90;;;;;;5136024;27;20784;-68
2022/06/18 00:08:28;;;;;;;8.47;7.87;;;21.60;98.10;;;;;;5116989;27;20417;-68
2022/06/18 00:13:39;;;;;;;9.27;8.67;;;21.70;98.10;;;;;;5126993;27;20427;-68
2022/06/18 00:13:43;;;;;;;10.10;9.30;;;21.60;98.40;;;;;;5132546;27;20440;-67
2022/06/18 00:16:12;;;;;;;9.17;8.47;;;21.60;98.60;;;;;;5103787;27;20808;-68
2022/06/18 00:18:39;;;;;;;9.50;8.80;;;21.50;98.50;;;;;;5135297;27;20417;-68
2022/06/18 00:21:06;;;;;;;9.43;8.73;;;21.50;98.30;;;;;;5120736;27;20463;-70
2022/06/18 00:23:33;;;;;;;8.73;8.13;;;21.50;98.50;;;;;;5114855;28;20432;-68
2022/06/18 00:25:59;;;;;;;9.97;9.30;;;21.50;98.40;;;;;;5127790;27;20416;-68
2022/06/18 00:28:28;;;;;;;9.10;8.40;;;21.50;98.60;;;;;;5135455;27;20417;-67
2022/06/18 00:30:55;;;;;;;8.60;7.90;;;21.40;98.80;;;;;;5109124;27;20426;-68
2022/06/18 00:33:21;;;;;;;9.10;8.50;;;21.50;98.70;;;;;;5130621;27;20876;-68
2022/06/18 00:35:49;;;;;;;9.60;8.80;;;21.40;98.80;;;;;;5130675;27;20410;-68
2022/06/18 00:38:21;;;;;;;8.67;8.07;;;21.40;99.00;;;;;;5128273;27;20439;-68
2022/06/18 00:40:47;;;;;;;8.83;8.07;;;21.40;99.10;;;;;;5134086;27;20432;-68
2022/06/18 00:43:21;;;;;;;8.10;7.50;;;21.40;99.10;;;;;;5132306;27;20425;-68
2022/06/18 00:45:51;;;;;;;9.70;8.80;;;21.40;99.00;;;;;;5116137;27;20574;-68
2022/06/18 00:48:28;;;;;;;8.60;8.00;;;21.30;99.10;;;;;;5109631;27;20425;-69
2022/06/18 00:51:08;;;;;;;8.87;8.07;;;21.30;99.20;;;;;;5119128;27;20444;-68
2022/06/18 00:53:42;;;;;;;9.27;8.43;;;21.30;99.50;;;;;;5135170;27;20750;-68
2022/06/18 00:56:25;;;;;;;9.60;8.90;;;21.30;99.40;;;;;;5110779;27;20446;-68
2022/06/18 00:58:57;;;;;;;8.90;8.20;;;21.30;99.40;;;;;;5097284;28;20438;-68
2022/06/18 01:01:29;;;;;;;9.33;8.53;;;21.30;99.60;;;;;;5109899;28;20459;-68
2022/06/18 01:03:56;;;;;;;9.30;8.50;;;21.30;99.50;;;;;;5122247;27;20769;-68
2022/06/18 01:06:25;;;;;;;9.40;8.60;;;21.20;98.90;;;;;;5104885;27;20769;-68
2022/06/18 01:09:15;;;;;;;8.27;7.67;;;21.20;99.00;;;;;;5110771;28;20544;-68
2022/06/18 01:11:42;;;;;;;9.53;8.73;;;21.20;99.20;;;;;;5111743;27;20420;-68
2022/06/18 01:14:11;;;;;;;9.77;8.30;;;21.10;98.70;;;;;;5134056;27;20397;-68
2022/06/18 01:16:37;;;;;;;8.90;8.00;;;21.10;99.20;;;;;;5133358;27;20416;-68
2022/06/18 01:19:07;;;;;;;7.93;7.40;;;21.10;99.30;;;;;;5133922;27;20503;-68
2022/06/18 01:21:44;;;;;;;9.27;8.60;;;21.10;99.40;;;;;;5121390;27;20492;-68
2022/06/18 01:24:21;;;;;;;8.77;8.13;;;21.10;99.30;;;;;;5113286;28;20417;-68
2022/06/18 01:26:53;;;;;;;8.60;7.90;;;21.10;99.10;;;;;;5133248;27;20428;-68
2022/06/18 01:29:19;;;;;;;8.20;7.50;;;21.10;99.40;;;;;;5133656;27;21115;-68
2022/06/18 01:31:47;;;;;;;7.80;7.10;;;21.10;99.20;;;;;;5126733;27;20424;-68
2022/06/18 01:34:15;;;;;;;9.17;8.53;;;21.10;99.20;;;;;;5125670;27;20452;-68
2022/06/18 01:36:41;;;;;;;8.33;7.50;;;21.00;99.00;;;;;;5131613;27;20421;-68
2022/06/18 01:39:14;;;;;;;7.53;7.03;;;21.00;99.10;;;;;;5132323;27;20898;-68
2022/06/18 01:42:04;;;;;;;7.37;6.87;;;21.00;99.20;;;;;;5132021;27;20432;-68
2022/06/18 01:44:48;;;;;;;7.43;6.90;;;21.00;99.30;;;;;;5113624;27;20418;-68
2022/06/18 01:47:26;;;;;;;7.53;6.87;;;21.00;98.80;;;;;;5121961;27;20516;-68
2022/06/18 01:50:13;;;;;;;15.87;7.27;;;20.90;98.80;;;;;;5109469;27;20452;-68
2022/06/18 01:52:45;;;;;;;7.37;6.87;;;20.90;98.20;;;;;;5127860;27;20906;-68
2022/06/18 01:55:22;;;;;;;6.93;6.53;;;20.90;98.30;;;;;;5130794;27;20417;-68
2022/06/18 01:57:54;;;;;;;6.43;6.03;;;20.90;99.20;;;;;;5134066;27;20401;-68
2022/06/18 02:00:24;;;;;;;6.37;5.97;;;20.90;98.40;;;;;;5128531;27;20633;-68
2022/06/18 02:02:51;;;;;;;7.20;6.70;;;20.90;98.10;;;;;;5132611;27;20420;-68
2022/06/18 02:05:19;;;;;;;6.43;6.13;;;20.90;98.50;;;;;;5117969;27;20421;-69
2022/06/18 02:07:47;;;;;;;7.00;6.50;;;20.90;98.30;;;;;;5118897;27;20427;-68
2022/06/18 02:10:20;;;;;;;6.37;5.90;;;20.90;98.10;;;;;;5131851;27;20787;-68
2022/06/18 02:12:47;;;;;;;6.40;6.00;;;20.90;98.50;;;;;;5133748;27;20404;-68
2022/06/18 02:15:18;;;;;;;6.63;6.23;;;20.90;98.50;;;;;;5130698;27;20465;-68
2022/06/18 02:17:44;;;;;;;6.60;6.10;;;20.90;98.30;;;;;;5133656;27;20496;-68
2022/06/18 02:20:20;;;;;;;6.33;6.00;;;20.90;98.70;;;;;;5126954;27;20979;-68
2022/06/18 02:22:56;;;;;;;7.37;6.77;;;20.90;98.50;;;;;;5131503;28;20420;-68
2022/06/18 02:25:25;;;;;;;7.00;6.50;;;20.90;98.70;;;;;;5113708;28;20428;-68
2022/06/18 02:27:56;;;;;;;8.27;7.57;;;20.90;98.80;;;;;;5132121;28;20488;-68
2022/06/18 02:30:25;;;;;;;7.23;6.63;;;20.90;99.60;;;;;;5125748;27;20455;-69
2022/06/18 02:32:56;;;;;;;6.77;6.27;;;20.90;99.40;;;;;;5132011;28;20413;-70
2022/06/18 02:35:22;;;;;;;6.70;6.30;;;20.90;99.00;;;;;;5101478;28;20464;-68
2022/06/18 02:37:48;;;;;;;6.97;6.27;;;20.90;99.20;;;;;;5125752;28;20409;-68
2022/06/18 02:40:21;;;;;;;6.70;6.10;;;20.90;99.50;;;;;;5122233;28;20443;-68
2022/06/18 02:42:52;;;;;;;6.80;6.30;;;20.90;99.20;;;;;;5120810;27;20899;-68
2022/06/18 02:45:21;;;;;;;6.83;6.23;;;20.90;98.70;;;;;;5131277;27;20389;-69
2022/06/18 02:47:47;;;;;;;7.37;6.57;;;20.90;98.90;;;;;;5098553;28;20951;-68
2022/06/18 02:50:16;;;;;;;6.47;6.07;;;20.90;99.00;;;;;;5093734;28;20446;-68
2022/06/18 02:52:47;;;;;;;6.53;6.03;;;20.80;99.30;;;;;;5132730;27;20419;-68
2022/06/18 02:55:16;;;;;;;7.70;7.07;;;20.80;99.40;;;;;;5111837;27;20421;-68
2022/06/18 02:57:41;;;;;;;7.20;6.60;;;20.80;99.30;;;;;;5134245;27;20991;-68
2022/06/18 03:00:08;;;;;;;6.67;6.27;;;20.80;99.60;;;;;;5134270;27;20487;-71
2022/06/18 03:02:35;;;;;;;6.93;6.53;;;20.80;99.90;;;;;;5077656;28;20168;-68
2022/06/18 03:05:00;;;;;;;7.00;6.50;;;20.80;99.10;;;;;;5125058;27;20420;-68
2022/06/18 03:07:26;;;;;;;8.30;7.10;;;20.80;99.10;;;;;;5128045;27;20511;-68
2022/06/18 03:12:36;;;;;;;7.30;6.77;;;20.80;99.60;;;;;;5134348;27;20613;-68
2022/06/18 03:15:02;;;;;;;7.13;6.63;;;20.90;99.30;;;;;;5135499;27;20452;-68
2022/06/18 03:17:27;;;;;;;7.07;6.13;;;20.90;99.20;;;;;;5130506;27;20175;-68
2022/06/18 03:19:59;;;;;;;6.93;6.43;;;20.90;99.30;;;;;;5136413;27;20230;-68
2022/06/18 03:22:24;;;;;;;7.00;6.50;;;20.90;99.50;;;;;;5130005;27;20183;-68
2022/06/18 03:24:50;;;;;;;7.40;6.77;;;20.90;99.30;;;;;;5134494;27;20754;-68
2022/06/18 03:27:17;;;;;;;7.13;6.67;;;21.00;99.60;;;;;;5134120;27;20232;-68
2022/06/18 03:29:44;;;;;;;7.70;7.10;;;21.00;99.00;;;;;;5126978;27;20223;-68
2022/06/18 03:32:10;;;;;;;6.90;6.40;;;21.00;99.90;;;;;;5127788;27;20551;-71
2022/06/18 03:34:36;;;;;;;8.00;7.30;;;21.00;99.60;;;;;;5129360;27;20465;-68
2022/06/18 03:37:01;;;;;;;6.63;6.33;;;20.90;99.30;;;;;;5136192;27;20167;-68
2022/06/18 03:39:27;;;;;;;7.60;7.10;;;21.00;99.60;;;;;;5135286;27;20424;-68
2022/06/18 03:41:53;;;;;;;6.60;6.20;;;21.00;99.50;;;;;;5129001;27;20176;-68
2022/06/18 03:44:19;;;;;;;6.80;6.40;;;21.00;99.60;;;;;;5135259;27;20203;-68
2022/06/18 03:46:45;;;;;;;6.80;6.40;;;21.00;99.60;;;;;;5136038;27;20182;-68
2022/06/18 03:49:27;;;;;;;6.97;6.57;;;21.00;99.50;;;;;;5134804;27;20628;-71
2022/06/18 03:51:55;;;;;;;7.63;7.13;;;21.00;99.50;;;;;;5136050;27;20408;-68
2022/06/18 03:54:21;;;;;;;7.20;6.80;;;21.00;99.60;;;;;;5134242;27;20413;-68
2022/06/18 03:56:48;;;;;;;8.07;7.40;;;21.00;99.60;;;;;;5134695;27;20393;-68
2022/06/18 03:59:14;;;;;;;8.40;7.70;;;21.10;99.50;;;;;;5131997;27;20770;-68
2022/06/18 04:01:40;;;;;;;7.70;7.10;;;21.10;99.30;;;;;;5128375;27;20962;-68
2022/06/18 04:04:10;;;;;;;7.30;6.90;;;21.10;99.70;;;;;;5135825;27;20534;-68
2022/06/18 04:06:40;;;;;;;7.50;7.00;;;21.10;99.60;;;;;;5130249;27;20428;-68
2022/06/18 04:09:06;;;;;;;7.70;7.30;;;21.20;99.50;;;;;;5135452;27;20542;-68
2022/06/18 04:11:32;;;;;;;7.37;6.97;;;21.20;99.90;;;;;;5131082;27;20569;-69
2022/06/18 04:13:59;;;;;;;6.57;6.20;;;21.20;99.70;;;;;;5132932;27;20452;-68
2022/06/18 04:16:25;;;;;;;6.80;6.40;;;21.30;99.90;;;;;;5134672;27;20523;-68
2022/06/18 04:18:51;;;;;;;7.50;6.23;;;21.30;99.60;;;;;;5135473;27;20500;-68
2022/06/18 04:21:17;;;;;;;6.73;6.23;;;21.30;99.50;;;;;;5127724;27;20464;-68
2022/06/18 04:23:44;;;;;;;7.30;6.70;;;21.40;99.30;;;;;;5134049;27;20444;-68
2022/06/18 04:26:10;;;;;;;7.87;7.23;;;21.40;99.40;;;;;;5135029;27;20412;-71
2022/06/18 04:28:37;;;;;;;7.03;6.37;;;21.40;99.50;;;;;;5113969;27;20944;-68
2022/06/18 04:31:04;;;;;;;7.47;6.87;;;21.50;99.50;;;;;;5120887;27;20436;-68
2022/06/18 04:33:30;;;;;;;6.80;6.40;;;21.50;99.60;;;;;;5134855;27;20419;-68
2022/06/18 04:35:57;;;;;;;7.93;7.33;;;21.60;99.90;;;;;;5134146;27;20927;-68
2022/06/18 04:38:23;;;;;;;7.93;7.33;;;21.60;99.90;;;;;;5134468;27;20796;-68
2022/06/18 04:40:49;;;;;;;6.40;5.90;;;21.60;99.70;;;;;;5135325;27;20439;-68
2022/06/18 04:43:15;;;;;;;8.03;7.43;;;21.70;99.90;;;;;;5134653;27;20477;-68
2022/06/18 04:45:41;;;;;;;6.53;6.00;;;21.70;99.90;;;;;;5128451;27;20434;-68
2022/06/18 04:48:07;;;;;;;7.47;6.97;;;21.80;99.90;;;;;;5135058;27;20205;-68
2022/06/18 04:50:37;;;;;;;8.40;7.53;;;21.80;99.90;;;;;;5132253;27;20298;-68
2022/06/18 04:53:04;;;;;;;8.37;7.67;;;21.80;99.90;;;;;;5135084;27;20427;-68
2022/06/18 04:55:30;;;;;;;7.53;6.73;;;21.90;99.90;;;;;;5124955;27;20447;-68
2022/06/18 04:57:56;;;;;;;10.27;8.50;;;21.90;99.90;;;;;;5114493;27;20422;-68
2022/06/18 05:00:22;;;;;;;7.83;7.27;;;21.90;99.90;;;;;;5124495;27;20900;-68
2022/06/18 05:02:48;;;;;;;7.00;6.60;;;21.90;99.90;;;;;;5135019;27;20533;-68
2022/06/18 05:05:18;;;;;;;8.87;8.07;;;22.00;99.90;;;;;;5127909;27;21225;-68
2022/06/18 05:07:44;;;;;;;7.60;7.03;;;22.00;99.90;;;;;;5132750;27;20194;-68
2022/06/18 05:10:10;;;;;;;8.33;7.80;;;22.00;99.90;;;;;;5134280;27;20448;-70
2022/06/18 05:12:36;;;;;;;9.50;8.70;;;22.10;99.90;;;;;;5133459;27;20439;-68
2022/06/18 05:15:03;;;;;;;7.77;7.17;;;22.20;99.90;;;;;;5133915;27;20405;-68
2022/06/18 05:17:33;;;;;;;7.20;6.70;;;22.20;99.90;;;;;;5133020;27;20794;-68
2022/06/18 05:19:59;;;;;;;7.90;7.30;;;22.20;99.90;;;;;;5134197;27;20483;-70
2022/06/18 05:22:25;;;;;;;8.03;7.53;;;22.30;99.60;;;;;;5133423;27;20401;-70
2022/06/18 05:24:51;;;;;;;7.97;7.47;;;22.30;99.90;;;;;;5113594;28;20437;-70
2022/06/18 05:27:30;;;;;;;8.57;7.90;;;22.40;99.90;;;;;;5099615;28;20456;-68
2022/06/18 05:29:56;;;;;;;6.47;6.10;;;22.40;99.70;;;;;;5113860;28;20482;-68
2022/06/18 05:32:22;;;;;;;6.40;6.00;;;22.50;99.50;;;;;;5113115;28;20427;-69
2022/06/18 05:34:48;;;;;;;8.20;6.80;;;22.60;99.90;;;;;;5115603;27;20416;-68
2022/06/18 05:37:17;;;;;;;10.87;9.77;;;22.60;99.60;;;;;;5133725;27;20208;-70
2022/06/18 05:39:43;;;;;;;7.93;7.33;;;22.70;99.30;;;;;;5132739;27;20280;-68
2022/06/18 05:42:09;;;;;;;7.10;6.70;;;22.70;98.50;;;;;;5134135;27;20417;-68
2022/06/18 05:44:35;;;;;;;6.90;6.50;;;22.80;98.20;;;;;;5117568;27;20472;-68
2022/06/18 05:47:22;;;;;;;6.77;6.20;;;22.80;97.90;;;;;;5102381;28;20428;-69
2022/06/18 05:49:49;;;;;;;9.50;7.83;;;22.90;97.30;;;;;;5118733;27;20469;-69
2022/06/18 05:52:15;;;;;;;7.13;6.63;;;22.90;96.90;;;;;;5118781;27;20434;-73
2022/06/18 05:54:40;;;;;;;6.77;6.27;;;23.00;97.70;;;;;;5112616;28;20425;-70
2022/06/18 05:57:06;;;;;;;8.40;5.70;;;23.10;97.70;;;;;;5124449;27;20429;-69
2022/06/18 05:59:32;;;;;;;6.37;5.73;;;23.10;96.80;;;;;;5133293;27;20533;-68
2022/06/18 06:01:58;;;;;;;6.70;6.10;;;23.20;96.30;;;;;;5124751;27;20202;-70
2022/06/18 06:04:26;;;;;;;6.83;6.23;;;23.20;95.50;;;;;;5079911;27;20525;-69
2022/06/18 06:06:52;;;;;;;6.30;5.80;;;23.30;96.00;;;;;;5133492;27;20469;-69
2022/06/18 06:12:05;;;;;;;5.77;5.37;;;23.40;94.80;;;;;;5127914;27;20436;-69
2022/06/18 06:14:31;;;;;;;7.07;6.50;;;23.50;94.40;;;;;;5103976;27;20433;-69
2022/06/18 06:16:59;;;;;;;6.30;5.77;;;23.50;94.80;;;;;;5119796;27;20923;-70
2022/06/18 06:19:25;;;;;;;6.20;5.80;;;23.60;94.80;;;;;;5110183;28;20445;-69
2022/06/18 06:21:51;;;;;;;5.90;5.50;;;23.60;94.10;;;;;;5111267;28;20461;-69
2022/06/18 06:24:17;;;;;;;5.87;5.47;;;23.70;94.00;;;;;;5112517;28;20184;-70
2022/06/18 06:26:42;;;;;;;6.40;6.00;;;23.70;93.80;;;;;;5113013;28;20172;-69
2022/06/18 06:29:09;;;;;;;6.10;5.80;;;23.80;93.30;;;;;;5111879;28;20479;-69
2022/06/18 06:31:35;;;;;;;6.07;5.60;;;23.80;93.00;;;;;;5123431;28;20710;-69
2022/06/18 06:34:01;;;;;;;6.70;6.13;;;23.90;93.30;;;;;;5133526;27;20396;-69
2022/06/18 06:36:27;;;;;;;6.37;5.97;;;23.90;92.50;;;;;;5115452;28;20839;-69
2022/06/18 06:38:53;;;;;;;5.93;5.53;;;24.00;93.10;;;;;;5111724;28;20813;-69
2022/06/18 06:41:23;;;;;;;6.37;6.00;;;24.00;93.30;;;;;;5119999;28;20266;-69
2022/06/18 06:43:50;;;;;;;6.37;5.90;;;24.10;93.40;;;;;;5127777;27;20597;-69
2022/06/18 06:46:17;;;;;;;5.80;5.40;;;24.20;92.80;;;;;;5112843;28;20776;-69
2022/06/18 06:48:43;;;;;;;7.07;6.47;;;24.30;92.80;;;;;;5111523;28;20526;-69
2022/06/18 06:51:15;;;;;;;6.03;5.50;;;24.30;92.60;;;;;;5112427;28;20925;-69
2022/06/18 06:53:41;;;;;;;6.40;6.00;;;24.50;92.80;;;;;;5112160;28;20408;-69
2022/06/18 06:58:56;;;;;;;7.17;6.57;;;24.60;93.60;;;;;;5129569;28;20423;-69
2022/06/18 07:01:21;;;;;;;5.83;5.33;;;24.70;94.00;;;;;;5122224;28;20960;-69
2022/06/18 07:03:47;;;;;;;7.27;6.67;;;24.70;92.50;;;;;;5112706;28;20211;-69
2022/06/18 07:06:13;;;;;;;6.73;6.23;;;24.90;92.50;;;;;;5098941;28;20180;-69
2022/06/18 07:08:39;;;;;;;6.37;6.00;;;24.80;94.60;;;;;;5127629;28;20184;-69
2022/06/18 07:11:05;;;;;;;6.20;5.77;;;24.70;94.70;;;;;;5098848;28;20430;-70
2022/06/18 07:13:32;;;;;;;6.70;6.03;;;24.60;94.50;;;;;;5132317;28;20538;-68
2022/06/18 07:15:58;;;;;;;6.80;6.30;;;24.50;94.20;;;;;;5115489;28;20429;-69
2022/06/18 07:18:26;;;;;;;7.70;7.10;;;24.60;94.00;;;;;;5108399;28;20465;-70
2022/06/18 07:20:52;;;;;;;6.60;6.10;;;24.60;94.80;;;;;;5124197;28;20472;-69
2022/06/18 07:23:18;;;;;;;11.60;10.60;;;24.70;94.10;;;;;;5127225;27;20931;-69
2022/06/18 07:25:44;;;;;;;11.63;10.43;;;24.60;94.30;;;;;;5124405;28;20179;-69
2022/06/18 07:28:10;;;;;;;9.10;6.77;;;24.70;94.40;;;;;;5127534;27;20422;-68
2022/06/18 07:30:36;;;;;;;9.40;8.50;;;24.70;93.70;;;;;;5118012;27;20731;-68
2022/06/18 07:33:03;;;;;;;8.37;7.57;;;24.80;93.50;;;;;;5116451;27;20773;-68
2022/06/18 07:35:31;;;;;;;10.83;10.00;;;24.90;93.50;;;;;;5109779;28;20431;-69
2022/06/18 07:37:58;;;;;;;8.00;7.00;;;24.80;93.40;;;;;;5113578;28;20426;-68
2022/06/18 07:40:25;;;;;;;9.93;9.03;;;24.80;94.10;;;;;;5101707;28;20434;-71
2022/06/18 07:42:53;;;;;;;13.07;11.73;;;24.90;93.20;;;;;;5094940;28;20893;-68
2022/06/18 07:45:22;;;;;;;9.00;8.27;;;25.00;92.70;;;;;;5108885;27;20413;-68
2022/06/18 07:47:49;;;;;;;8.27;7.67;;;24.90;92.60;;;;;;5131616;27;20429;-69
2022/06/18 07:50:16;;;;;;;34.57;29.57;;;24.90;93.40;;;;;;5129258;27;20460;-68
2022/06/18 07:52:44;;;;;;;18.87;16.80;;;25.10;93.30;;;;;;5134789;27;20439;-67
2022/06/18 07:55:28;;;;;;;12.57;11.33;;;25.10;92.80;;;;;;5135572;27;20951;-68
2022/06/18 07:57:54;;;;;;;9.40;7.87;;;25.10;92.90;;;;;;5113073;27;20452;-69
2022/06/18 08:00:21;;;;;;;9.80;8.87;;;25.20;92.60;;;;;;5122635;27;20461;-68
2022/06/18 08:02:48;;;;;;;10.47;9.57;;;25.30;92.70;;;;;;5116005;27;20180;-68
2022/06/18 08:05:24;;;;;;;7.43;6.90;;;25.50;92.70;;;;;;5115150;28;20414;-70
2022/06/18 08:07:50;;;;;;;8.70;6.57;;;25.90;93.10;;;;;;5121487;27;20495;-68
2022/06/18 08:10:16;;;;;;;6.80;6.13;;;26.20;93.00;;;;;;5127882;27;20463;-68
2022/06/18 08:12:42;;;;;;;6.23;5.63;;;26.30;91.10;;;;;;5127639;27;20431;-68
2022/06/18 08:15:09;;;;;;;36.93;32.93;;;26.50;89.00;;;;;;5135491;27;20182;-68
2022/06/18 08:17:36;;;;;;;52.40;45.10;;;26.60;90.00;;;;;;5134571;27;20167;-68
2022/06/18 08:20:03;;;;;;;20.80;18.63;;;26.80;89.40;;;;;;5118072;27;20464;-68
2022/06/18 08:22:30;;;;;;;18.03;16.20;;;26.90;88.50;;;;;;5113324;28;20494;-69
2022/06/18 08:24:57;;;;;;;7.70;7.20;;;27.00;87.70;;;;;;5115288;28;20885;-68
2022/06/18 08:27:23;;;;;;;13.60;12.40;;;27.10;89.80;;;;;;5114960;28;20179;-71
2022/06/18 08:29:49;;;;;;;9.97;9.03;;;27.20;87.10;;;;;;5114984;27;20457;-67
2022/06/18 08:32:15;;;;;;;11.60;10.40;;;27.20;87.10;;;;;;5115008;28;20801;-67
2022/06/18 08:34:41;;;;;;;7.93;7.23;;;27.20;87.30;;;;;;5114317;28;20410;-67
2022/06/18 08:37:07;;;;;;;10.77;7.10;;;26.90;88.60;;;;;;5113690;28;20211;-68
2022/06/18 08:39:34;;;;;;;8.03;7.43;;;26.90;86.80;;;;;;5113610;28;20514;-68
2022/06/18 08:42:36;;;;;;;6.87;6.30;;;27.10;87.00;;;;;;5115103;28;20764;-68
2022/06/18 08:45:15;;;;;;;7.33;5.97;;;27.40;86.30;;;;;;5114678;28;20395;-69
2022/06/18 08:48:05;;;;;;;6.33;5.93;;;27.70;84.40;;;;;;5114061;28;20427;-69
2022/06/18 08:50:48;;;;;;;6.57;6.10;;;28.10;85.90;;;;;;5114103;28;20545;-73
2022/06/18 08:54:02;;;;;;;6.47;5.80;;;28.30;82.30;;;;;;5113286;28;20869;-72
2022/06/18 08:56:39;;;;;;;7.07;6.07;;;28.50;79.20;;;;;;5074881;28;20451;-72
2022/06/18 08:59:36;;;;;;;7.40;6.33;;;28.90;81.00;;;;;;5114574;28;20398;-72
2022/06/18 09:02:28;;;;;;;6.50;5.90;;;29.20;80.20;;;;;;5114431;28;20443;-71
2022/06/18 09:05:04;;;;;;;7.50;5.60;;;29.40;79.90;;;;;;5114458;28;20417;-71
2022/06/18 09:07:59;;;;;;;6.67;6.07;;;29.70;77.50;;;;;;5113772;28;20420;-71
2022/06/18 09:10:33;;;;;;;6.73;6.23;;;29.90;75.80;;;;;;5114370;28;20481;-71
2022/06/18 09:13:08;;;;;;;6.80;6.20;;;29.90;72.00;;;;;;5113346;28;20433;-72
2022/06/18 09:15:39;;;;;;;6.90;6.07;;;30.00;71.20;;;;;;5111888;28;20432;-71
2022/06/18 09:18:43;;;;;;;7.50;6.10;;;30.00;70.90;;;;;;5112457;28;20939;-72
2022/06/18 09:21:17;;;;;;;6.67;6.00;;;30.10;71.20;;;;;;5081888;28;20469;-72
2022/06/18 09:23:57;;;;;;;8.37;5.90;;;30.30;71.40;;;;;;5113587;28;20432;-71
2022/06/18 09:26:34;;;;;;;6.40;5.93;;;30.40;70.90;;;;;;5114205;28;20429;-71
2022/06/18 09:29:09;;;;;;;6.67;6.07;;;30.60;71.10;;;;;;5114358;28;20453;-71
2022/06/18 09:31:46;;;;;;;6.57;5.80;;;30.70;70.30;;;;;;5114898;28;20386;-72
2022/06/18 09:34:39;;;;;;;6.60;5.90;;;30.90;70.30;;;;;;5113994;28;20389;-72
2022/06/18 09:37:13;;;;;;;5.97;5.47;;;30.70;67.70;;;;;;5085647;28;20441;-71
2022/06/18 09:39:44;;;;;;;6.40;5.83;;;30.90;69.90;;;;;;5113250;28;20408;-72
2022/06/18 09:42:22;;;;;;;7.00;6.23;;;31.00;69.90;;;;;;5095583;28;20453;-71
2022/06/18 09:45:14;;;;;;;7.03;6.30;;;31.20;68.80;;;;;;5111973;28;20971;-71
2022/06/18 09:47:46;;;;;;;8.40;5.87;;;31.30;67.70;;;;;;5112623;28;20829;-71
2022/06/18 09:50:47;;;;;;;6.00;5.60;;;31.40;64.00;;;;;;5113619;28;20500;-71
2022/06/18 09:53:26;;;;;;;6.70;6.00;;;31.50;69.00;;;;;;5109726;28;20425;-70
2022/06/18 09:56:07;;;;;;;7.57;6.77;;;31.50;65.30;;;;;;5112660;28;20401;-71
2022/06/18 09:58:40;;;;;;;5.90;5.30;;;31.60;66.20;;;;;;5111248;28;20409;-72
2022/06/18 10:01:08;;;;;;;7.37;6.57;;;31.70;64.60;;;;;;5110014;28;20440;-72
2022/06/18 10:09:16;;;;;;;6.63;6.13;;;31.90;61.90;;;;;;5113039;28;20547;-72
2022/06/18 10:11:43;;;;;;;6.23;5.73;;;31.90;62.20;;;;;;5112532;28;20451;-72
2022/06/18 10:14:18;;;;;;;8.70;6.10;;;32.00;62.50;;;;;;5112118;28;20427;-71
2022/06/18 10:16:53;;;;;;;6.80;6.20;;;32.00;61.40;;;;;;5112752;28;20397;-71
2022/06/18 10:19:27;;;;;;;10.50;9.40;;;32.10;61.80;;;;;;5113455;28;20428;-71
2022/06/18 10:21:57;;;;;;;6.87;6.27;;;32.10;61.40;;;;;;5112885;28;20473;-71
2022/06/18 10:24:47;;;;;;;7.07;6.00;;;32.20;64.30;;;;;;5113118;28;20410;-72
2022/06/18 10:27:39;;;;;;;7.93;5.90;;;32.30;64.30;;;;;;5104644;28;20782;-71
2022/06/18 10:30:11;;;;;;;7.93;7.13;;;32.40;60.70;;;;;;5112974;28;20798;-71
2022/06/18 10:33:17;;;;;;;7.10;6.50;;;32.40;60.80;;;;;;5111180;28;20447;-72
2022/06/18 10:35:59;;;;;;;6.80;6.07;;;32.40;59.50;;;;;;5110886;28;20465;-71
2022/06/18 10:38:54;;;;;;;7.50;5.50;;;32.50;59.70;;;;;;5111846;28;20412;-71
2022/06/18 10:41:28;;;;;;;7.00;6.30;;;32.60;58.80;;;;;;5112608;28;20425;-71
2022/06/18 10:44:22;;;;;;;6.10;5.30;;;32.60;60.90;;;;;;5111977;28;20400;-72
2022/06/18 10:47:03;;;;;;;7.70;5.70;;;32.70;59.70;;;;;;5112363;28;20398;-70
2022/06/18 10:49:31;;;;;;;6.97;6.30;;;32.70;62.50;;;;;;5112544;28;20507;-72
2022/06/18 10:51:57;;;;;;;8.03;6.57;;;32.70;62.00;;;;;;5113126;28;20405;-71
2022/06/18 10:54:32;;;;;;;7.37;5.73;;;32.80;61.60;;;;;;5112864;28;20410;-71
2022/06/18 10:56:58;;;;;;;7.60;5.80;;;32.80;61.90;;;;;;5111454;28;20466;-71
2022/06/18 10:59:30;;;;;;;6.13;5.53;;;32.80;60.90;;;;;;5111668;28;20418;-71
2022/06/18 11:02:21;;;;;;;65.13;58.50;;;32.80;59.70;;;;;;5112074;28;20175;-71
2022/06/18 11:05:00;;;;;;;11.07;9.97;;;32.90;59.90;;;;;;5113967;28;20418;-71
2022/06/18 11:07:29;;;;;;;9.20;6.80;;;32.90;60.00;;;;;;5115440;28;20768;-71
2022/06/18 11:10:01;;;;;;;8.23;6.17;;;33.00;60.50;;;;;;5115958;28;20457;-71
2022/06/18 11:12:36;;;;;;;8.83;6.40;;;33.00;60.70;;;;;;5116519;28;20448;-71
2022/06/18 11:15:05;;;;;;;10.43;7.10;;;33.10;58.60;;;;;;5116369;28;20413;-71
2022/06/18 11:17:32;;;;;;;7.20;5.60;;;33.00;58.60;;;;;;5116403;28;20409;-72
2022/06/18 11:20:29;;;;;;;6.37;5.77;;;33.10;59.40;;;;;;5115784;28;20475;-71
2022/06/18 11:22:58;;;;;;;6.87;6.27;;;33.10;59.60;;;;;;5103350;28;20433;-71
2022/06/18 11:25:30;;;;;;;8.10;7.03;;;33.10;57.50;;;;;;5116367;28;20919;-71
2022/06/18 11:27:59;;;;;;;8.30;6.50;;;33.20;59.60;;;;;;5114776;28;20508;-71
2022/06/18 11:30:31;;;;;;;8.60;5.83;;;33.10;56.60;;;;;;5116245;28;20595;-71
2022/06/18 11:32:58;;;;;;;8.63;6.37;;;33.20;59.80;;;;;;5115597;28;20460;-71
2022/06/18 11:35:32;;;;;;;9.60;6.17;;;33.30;60.20;;;;;;5114967;28;20493;-72
2022/06/18 11:38:04;;;;;;;7.10;6.40;;;33.40;57.90;;;;;;5115691;28;20397;-72
2022/06/18 11:40:31;;;;;;;8.70;6.60;;;33.40;58.30;;;;;;5114511;28;20417;-71
2022/06/18 11:43:19;;;;;;;8.93;6.37;;;33.40;56.10;;;;;;5115420;28;20489;-71
2022/06/18 11:45:53;;;;;;;10.20;6.00;;;33.40;57.50;;;;;;5094966;28;20505;-71
2022/06/18 11:48:37;;;;;;;10.50;6.60;;;33.30;57.50;;;;;;5107400;28;20433;-72
2022/06/18 11:51:14;;;;;;;10.67;6.83;;;33.30;57.20;;;;;;5116025;28;20414;-72
2022/06/18 11:53:53;;;;;;;9.67;6.20;;;33.30;56.20;;;;;;5114855;28;20420;-72
2022/06/18 11:56:44;;;;;;;7.90;6.10;;;33.30;57.20;;;;;;5115797;28;20398;-72
2022/06/18 11:59:24;;;;;;;137.80;124.27;;;33.30;56.90;;;;;;5108663;28;20517;-71
2022/06/18 12:02:00;;;;;;;41.73;37.33;;;33.40;59.30;;;;;;5094596;28;20387;-71
2022/06/18 12:04:37;;;;;;;11.53;8.07;;;33.30;57.40;;;;;;5094928;28;20878;-71
2022/06/18 12:07:07;;;;;;;8.30;7.47;;;33.20;57.40;;;;;;5095316;28;20402;-72
2022/06/18 12:09:33;;;;;;;10.37;6.30;;;33.20;56.50;;;;;;5095065;28;20549;-72
2022/06/18 12:12:08;;;;;;;10.83;6.10;;;33.20;57.00;;;;;;5094393;28;20871;-72
2022/06/18 12:15:07;;;;;;;10.40;7.17;;;33.20;57.90;;;;;;5094220;28;20532;-72
2022/06/18 12:17:43;;;;;;;8.50;5.70;;;33.10;58.20;;;;;;5094534;28;20410;-72
2022/06/18 12:20:51;;;;;;;6.90;5.73;;;33.20;58.60;;;;;;5094794;28;20561;-72
2022/06/18 12:23:34;;;;;;;7.83;5.43;;;33.20;58.80;;;;;;5094618;28;20405;-72
2022/06/18 12:26:20;;;;;;;9.03;6.97;;;33.20;58.10;;;;;;5094144;28;20463;-72
2022/06/18 12:29:04;;;;;;;7.67;5.57;;;33.20;57.70;;;;;;5107910;27;20942;-72
2022/06/18 12:31:41;;;;;;;8.60;6.37;;;33.20;57.50;;;;;;5106777;27;20441;-72
2022/06/18 12:34:13;;;;;;;11.10;6.83;;;33.20;60.40;;;;;;5120149;27;20436;-72
2022/06/18 12:37:15;;;;;;;12.17;6.70;;;33.20;60.00;;;;;;5114293;28;20462;-73
2022/06/18 12:39:55;;;;;;;8.53;5.50;;;33.20;56.80;;;;;;5123950;27;20820;-73
2022/06/18 12:42:32;;;;;;;6.20;5.63;;;33.20;57.40;;;;;;5128067;27;20530;-71
2022/06/18 12:45:10;;;;;;;11.50;6.50;;;33.10;56.20;;;;;;5128852;27;20802;-71
2022/06/18 12:47:56;;;;;;;7.40;6.70;;;33.10;57.10;;;;;;5116160;27;20432;-70
2022/06/18 12:50:44;;;;;;;9.10;6.07;;;33.00;56.30;;;;;;5128940;27;20823;-71
2022/06/18 12:53:31;;;;;;;7.47;6.57;;;33.00;56.10;;;;;;5133001;27;20434;-72
2022/06/18 12:56:00;;;;;;;9.87;6.73;;;32.90;57.20;;;;;;5115034;27;20501;-71
2022/06/18 12:58:46;;;;;;;8.93;6.20;;;33.00;57.10;;;;;;5123860;27;21004;-71
2022/06/18 13:01:24;;;;;;;8.53;7.10;;;33.00;57.20;;;;;;5119780;27;20489;-71
2022/06/18 13:04:03;;;;;;;11.03;7.03;;;33.00;57.00;;;;;;5117976;27;20461;-71
2022/06/18 13:06:56;;;;;;;9.70;6.63;;;32.90;56.80;;;;;;5107312;28;20437;-71
2022/06/18 13:09:44;;;;;;;7.07;6.03;;;33.00;58.60;;;;;;5114301;28;20809;-71
2022/06/18 13:12:22;;;;;;;10.63;7.47;;;33.00;59.10;;;;;;5102436;27;20748;-67
2022/06/18 13:15:10;;;;;;;9.87;7.23;;;33.00;55.40;;;;;;5125478;27;20424;-68
2022/06/18 13:17:55;;;;;;;36.00;32.23;;;32.90;57.10;;;;;;5110719;27;20888;-67
2022/06/18 13:20:26;;;;;;;44.93;39.83;;;33.00;57.60;;;;;;5112352;27;20464;-67
2022/06/18 13:22:53;;;;;;;16.03;14.30;;;32.90;56.70;;;;;;5128223;27;20482;-67
2022/06/18 13:28:20;;;;;;;11.93;8.40;;;32.90;57.70;;;;;;5123352;27;20416;-68